Time;durP1;ratioP1;P1;durP2;ratioP2;P2;SDS_P1;SDS_P2;PMS_P1;PMS_P2;Temp;Humidity;BMP_temperature;BMP_pressure;BME280_temperature;BME280_humidity;BME280_pressure;Samples;Min_cycle;Max_cycle;Signal;HPM_P1;HPM_P2
2022/01/20 00:02:01;;;;;;;;;;;;;;;-6.14;68.04;96029.88;5073383;28;973;-48
2022/01/20 00:04:46;;;;;;;;;;;;;;;-6.19;67.61;96027.38;5071996;28;997;-48
2022/01/20 00:26:29;;;;;;;;;;;;;;;-6.24;68.01;96023.16;5072773;28;1141;-48
2022/01/20 00:28:59;;;;;;;;;;;;;;;-6.40;67.67;96020.94;5073097;28;962;-48
2022/01/20 00:34:09;;;;;;;;;;;;;;;-6.37;69.08;96014.84;5076551;28;1902;-48
2022/01/20 00:39:02;;;;;;;;;;;;;;;-6.11;68.08;96003.75;5076800;28;1028;-48
2022/01/20 00:41:28;;;;;;;;;;;;;;;-6.12;68.70;96000.28;5076169;28;1995;-48
2022/01/20 00:43:54;;;;;;;;;;;;;;;-6.11;68.27;96004.63;5076557;28;993;-49
2022/01/20 00:46:20;;;;;;;;;;;;;;;-6.01;67.65;96002.63;5076183;28;996;-49
2022/01/20 00:48:46;;;;;;;;;;;;;;;-6.33;67.81;95995.66;5076278;28;1121;-48
2022/01/20 00:51:13;;;;;;;;;;;;;;;-6.56;69.57;95976.25;5075995;28;1227;-49
2022/01/20 00:53:43;;;;;;;;;;;;;;;-6.24;68.58;95998.03;5076352;28;1909;-49
2022/01/20 00:56:11;;;;;;;;;;;;;;;-6.14;68.29;95996.03;5076208;28;1131;-49
2022/01/20 00:58:37;;;;;;;;;;;;;;;-6.19;67.78;95995.28;5076058;28;1020;-48
2022/01/20 01:01:03;;;;;;;;;;;;;;;-6.40;67.67;95992.31;5074713;28;1104;-48
2022/01/20 01:03:29;;;;;;;;;;;;;;;-6.63;69.25;95992.06;5076192;28;1045;-48
2022/01/20 01:08:30;;;;;;;;;;;;;;;-6.60;69.63;95984.16;5075966;28;1117;-48
2022/01/20 01:10:56;;;;;;;;;;;;;;;-6.58;69.37;95978.03;5074479;28;1045;-49
2022/01/20 01:13:24;;;;;;;;;;;;;;;-6.49;68.88;95976.94;5075891;28;1048;-48
2022/01/20 01:15:51;;;;;;;;;;;;;;;-6.38;68.84;95974.06;5075569;28;1971;-49
2022/01/20 01:23:37;;;;;;;;;;;;;;;-6.76;69.40;95968.06;5075908;28;982;-49
2022/01/20 01:26:07;;;;;;;;;;;;;;;-6.61;69.81;95961.66;5075338;28;1149;-49
2022/01/20 01:28:33;;;;;;;;;;;;;;;-6.49;69.53;95958.72;5074220;28;1121;-49
2022/01/20 01:33:57;;;;;;;;;;;;;;;-6.40;69.97;95955.91;5075532;28;1905;-49
2022/01/20 01:36:24;;;;;;;;;;;;;;;-6.40;69.01;95955.06;5075537;28;1158;-48
2022/01/20 01:38:52;;;;;;;;;;;;;;;-6.61;67.72;95948.66;5075661;28;961;-48
2022/01/20 01:41:27;;;;;;;;;;;;;;;-6.84;69.26;95954.41;5074122;28;1112;-48
2022/01/20 01:43:54;;;;;;;;;;;;;;;-6.85;68.53;95960.50;5075672;28;1048;-48
2022/01/20 01:46:21;;;;;;;;;;;;;;;-6.81;68.95;95959.53;5075219;28;1032;-49
2022/01/20 01:48:47;;;;;;;;;;;;;;;-6.72;69.20;95952.34;5075545;28;1040;-49
2022/01/20 01:51:13;;;;;;;;;;;;;;;-6.71;68.26;95950.63;5074846;28;1295;-49
2022/01/20 01:53:39;;;;;;;;;;;;;;;-6.90;69.57;95947.59;5075109;28;1926;-49
2022/01/20 01:56:06;;;;;;;;;;;;;;;-6.99;69.05;95945.22;5075250;28;1024;-48
2022/01/20 01:58:32;;;;;;;;;;;;;;;-6.94;69.79;95941.63;5075081;28;962;-49
2022/01/20 02:00:58;;;;;;;;;;;;;;;-6.81;68.98;95942.19;5075342;28;973;-49
2022/01/20 02:03:26;;;;;;;;;;;;;;;-6.88;69.39;95946.66;5074717;28;1108;-50
2022/01/20 02:08:32;;;;;;;;;;;;;;;-6.93;68.56;95935.50;5074614;28;1034;-49
2022/01/20 02:19:12;;;;;;;;;;;;;;;-7.33;69.29;95920.00;5073567;28;1030;-49
2022/01/20 02:21:45;;;;;;;;;;;;;;;-7.18;69.61;95931.81;5074817;28;973;-49
2022/01/20 02:24:11;;;;;;;;;;;;;;;-7.21;68.96;95927.50;5074652;28;1052;-49
2022/01/20 02:26:37;;;;;;;;;;;;;;;-7.17;68.87;95921.38;5074715;28;984;-49
2022/01/20 02:29:03;;;;;;;;;;;;;;;-7.40;68.79;95914.06;5074232;28;1041;-49
2022/01/20 02:31:29;;;;;;;;;;;;;;;-7.38;69.08;95907.13;5074842;28;1044;-50
2022/01/20 02:33:57;;;;;;;;;;;;;;;-7.25;69.53;95905.09;5073183;28;1906;-49
2022/01/20 02:36:23;;;;;;;;;;;;;;;-7.10;69.23;95906.47;5074452;28;1221;-50
2022/01/20 02:38:59;;;;;;;;;;;;;;;-7.17;68.65;95907.50;5074087;28;1973;-49
2022/01/20 02:46:54;;;;;;;;;;;;;;;-7.31;69.64;95892.25;5074274;28;981;-49
2022/01/20 02:49:21;;;;;;;;;;;;;;;-7.31;69.25;95900.88;5073620;28;1254;-50
2022/01/20 02:51:54;;;;;;;;;;;;;;;-7.20;68.82;95900.63;5074176;28;1067;-50
2022/01/20 02:54:21;;;;;;;;;;;;;;;-7.14;69.00;95891.84;5074094;28;2001;-49
2022/01/20 02:56:47;;;;;;;;;;;;;;;-7.21;68.72;95898.06;5074139;28;1024;-49
2022/01/20 02:59:13;;;;;;;;;;;;;;;-7.56;69.66;95891.94;5073753;28;985;-50
2022/01/20 03:01:40;;;;;;;;;;;;;;;-7.68;69.83;95896.53;5073803;28;1038;-49
2022/01/20 03:04:06;;;;;;;;;;;;;;;-7.57;70.32;95887.63;5073561;28;1101;-49
2022/01/20 03:06:32;;;;;;;;;;;;;;;-7.52;69.87;95889.22;5074142;28;1045;-49
2022/01/20 03:08:58;;;;;;;;;;;;;;;-7.46;69.75;95888.25;5073776;28;1029;-49
2022/01/20 03:11:24;;;;;;;;;;;;;;;-7.42;69.75;95884.69;5073503;28;2059;-49
2022/01/20 03:13:50;;;;;;;;;;;;;;;-7.34;68.89;95894.91;5073519;28;1906;-49
2022/01/20 03:16:16;;;;;;;;;;;;;;;-7.51;69.34;95890.97;5073748;28;1068;-49
2022/01/20 03:18:42;;;;;;;;;;;;;;;-7.54;68.79;95888.41;5073704;28;1020;-50
2022/01/20 03:21:08;;;;;;;;;;;;;;;-7.49;69.46;95890.94;5073338;28;1128;-50
2022/01/20 03:23:34;;;;;;;;;;;;;;;-7.41;69.15;95889.00;5073559;28;1021;-50
2022/01/20 03:26:00;;;;;;;;;;;;;;;-7.54;69.05;95890.16;5073356;28;1081;-49
2022/01/20 03:28:26;;;;;;;;;;;;;;;-7.54;69.53;95882.38;5073261;28;1028;-50
2022/01/20 03:30:52;;;;;;;;;;;;;;;-7.66;68.90;95888.72;5072202;28;1113;-50
2022/01/20 03:33:18;;;;;;;;;;;;;;;-7.85;69.57;95889.09;5073403;28;1014;-49
2022/01/20 03:35:44;;;;;;;;;;;;;;;-7.73;69.94;95874.13;5073194;28;1914;-49
2022/01/20 03:38:10;;;;;;;;;;;;;;;-7.63;69.53;95872.19;5071855;28;1856;-49
2022/01/20 03:40:37;;;;;;;;;;;;;;;-7.53;69.49;95878.88;5073413;28;977;-49
2022/01/20 03:43:03;;;;;;;;;;;;;;;-7.42;69.44;95882.09;5073391;28;967;-49
2022/01/20 03:45:29;;;;;;;;;;;;;;;-7.59;68.92;95884.22;5073148;28;1004;-50
2022/01/20 03:48:05;;;;;;;;;;;;;;;-7.81;69.54;95889.03;5073345;28;981;-49
2022/01/20 03:53:16;;;;;;;;;;;;;;;-7.81;68.61;95894.22;5073225;28;1009;-49
2022/01/20 03:55:42;;;;;;;;;;;;;;;-7.94;69.23;95891.88;5073020;28;1887;-49
2022/01/20 03:58:08;;;;;;;;;;;;;;;-7.91;69.35;95893.53;5072954;28;985;-49
2022/01/20 04:00:34;;;;;;;;;;;;;;;-8.05;69.43;95892.09;5073290;28;965;-49
2022/01/20 04:03:00;;;;;;;;;;;;;;;-8.16;69.97;95888.84;5055576;28;1331;-50
2022/01/20 04:05:26;;;;;;;;;;;;;;;-8.02;70.14;95888.59;5076065;28;1060;-49
2022/01/20 04:07:52;;;;;;;;;;;;;;;-7.78;69.84;95887.19;5093231;28;1041;-50
2022/01/20 04:10:18;;;;;;;;;;;;;;;-7.79;69.02;95882.06;5076830;28;1992;-49
2022/01/20 04:12:44;;;;;;;;;;;;;;;-7.97;69.24;95891.06;5077143;28;1029;-50
2022/01/20 04:15:10;;;;;;;;;;;;;;;-7.92;70.41;95886.66;5077042;28;1914;-49
2022/01/20 04:17:43;;;;;;;;;;;;;;;-7.80;70.12;95888.97;5077320;28;1048;-49
2022/01/20 04:20:10;;;;;;;;;;;;;;;-7.87;69.67;95895.22;5075826;28;978;-50
2022/01/20 04:22:36;;;;;;;;;;;;;;;-7.86;69.50;95886.53;5076046;28;1041;-50
2022/01/20 04:25:03;;;;;;;;;;;;;;;-8.06;69.09;95884.34;5076742;28;1040;-50
2022/01/20 04:27:30;;;;;;;;;;;;;;;-8.03;69.74;95888.63;5075476;28;1032;-50
2022/01/20 04:29:56;;;;;;;;;;;;;;;-7.97;69.77;95889.31;5076857;28;997;-49
2022/01/20 04:32:22;;;;;;;;;;;;;;;-7.91;68.57;95885.75;5075712;28;1159;-49
2022/01/20 04:34:48;;;;;;;;;;;;;;;-8.09;69.07;95880.06;5075272;28;1910;-49
2022/01/20 04:37:15;;;;;;;;;;;;;;;-8.27;69.86;95888.22;5076853;28;1166;-49
2022/01/20 04:39:46;;;;;;;;;;;;;;;-8.24;70.22;95880.38;5075352;28;1666;-49
2022/01/20 04:42:12;;;;;;;;;;;;;;;-8.14;72.01;95878.44;5075337;28;1116;-49
2022/01/20 04:44:45;;;;;;;;;;;;;;;-7.83;70.89;95888.19;5076343;28;1034;-49
2022/01/20 04:47:52;;;;;;;;;;;;;;;-7.78;70.24;95896.75;5075257;28;1067;-50
2022/01/20 04:58:18;;;;;;;;;;;;;;;-7.94;69.55;95885.84;5076312;28;978;-50
2022/01/20 05:00:44;;;;;;;;;;;;;;;-7.94;69.62;95880.66;5074943;28;1005;-50
2022/01/20 05:03:10;;;;;;;;;;;;;;;-7.97;69.30;95889.31;5076462;28;991;-50
2022/01/20 05:05:36;;;;;;;;;;;;;;;-8.01;69.32;95886.84;5076149;28;981;-50
2022/01/20 05:08:02;;;;;;;;;;;;;;;-8.15;68.75;95894.91;5075124;28;1028;-50
2022/01/20 05:10:30;;;;;;;;;;;;;;;-8.20;69.15;95899.34;5075657;28;1050;-50
2022/01/20 05:15:23;;;;;;;;;;;;;;;-8.02;69.44;95892.91;5074862;28;1992;-50
2022/01/20 05:17:49;;;;;;;;;;;;;;;-8.06;67.90;95884.34;5075793;28;1029;-50
2022/01/20 05:20:15;;;;;;;;;;;;;;;-8.14;68.84;95881.03;5075543;28;973;-50
2022/01/20 05:22:41;;;;;;;;;;;;;;;-8.21;68.91;95882.91;5075824;28;1108;-49
2022/01/20 05:25:08;;;;;;;;;;;;;;;-8.19;69.85;95883.75;5074454;28;1016;-50
2022/01/20 05:27:34;;;;;;;;;;;;;;;-8.25;69.13;95879.53;5075838;28;1674;-50
2022/01/20 05:30:00;;;;;;;;;;;;;;;-8.40;68.75;95881.56;5058215;28;1468;-49
2022/01/20 05:32:26;;;;;;;;;;;;;;;-8.43;70.56;95873.88;5074442;28;1061;-50
2022/01/20 05:34:52;;;;;;;;;;;;;;;-8.31;69.91;95883.97;5075764;28;1906;-50
2022/01/20 05:37:19;;;;;;;;;;;;;;;-8.13;69.98;95877.56;5074687;28;1206;-50
2022/01/20 05:39:45;;;;;;;;;;;;;;;-8.09;69.59;95882.66;5074764;28;1028;-50
2022/01/20 05:42:11;;;;;;;;;;;;;;;-8.13;69.54;95886.22;5075241;28;1081;-49
2022/01/20 05:44:37;;;;;;;;;;;;;;;-8.07;70.32;95882.63;5075466;28;1088;-50
2022/01/20 05:47:09;;;;;;;;;;;;;;;-8.36;69.18;95878.03;5074075;28;1050;-50
2022/01/20 05:49:35;;;;;;;;;;;;;;;-8.36;70.10;95884.06;5107701;28;1293;-50
2022/01/20 05:52:03;;;;;;;;;;;;;;;-8.30;69.84;95888.28;5075221;28;989;-50
2022/01/20 05:54:29;;;;;;;;;;;;;;;-8.39;69.34;95884.13;5074065;28;2002;-50
2022/01/20 05:56:55;;;;;;;;;;;;;;;-8.38;70.33;95875.47;5075065;28;1054;-50
2022/01/20 05:59:21;;;;;;;;;;;;;;;-8.27;69.60;95873.53;5073805;28;1038;-50
2022/01/20 06:01:54;;;;;;;;;;;;;;;-7.94;69.58;95878.06;5075011;28;1114;-50
2022/01/20 06:04:20;;;;;;;;;;;;;;;-7.86;69.35;95882.19;5074065;28;1060;-49
2022/01/20 06:06:46;;;;;;;;;;;;;;;-8.27;68.10;95880.44;5075256;28;1036;-50
2022/01/20 06:09:12;;;;;;;;;;;;;;;-8.45;68.80;95876.50;5073862;28;1065;-50
2022/01/20 06:11:38;;;;;;;;;;;;;;;-8.42;69.44;95872.97;5074781;28;1079;-50
2022/01/20 06:14:05;;;;;;;;;;;;;;;-8.19;69.75;95875.09;5073977;28;1914;-50
2022/01/20 06:16:31;;;;;;;;;;;;;;;-8.02;69.76;95869.53;5073767;28;1036;-50
2022/01/20 06:18:58;;;;;;;;;;;;;;;-7.92;69.35;95869.34;5074836;28;1068;-50
2022/01/20 06:21:23;;;;;;;;;;;;;;;-7.80;67.98;95860.41;5074959;28;1052;-50
2022/01/20 06:23:50;;;;;;;;;;;;;;;-7.79;68.29;95869.94;5074912;28;1064;-50
2022/01/20 06:26:16;;;;;;;;;;;;;;;-7.80;69.11;95865.63;5073319;28;1112;-50
2022/01/20 06:28:42;;;;;;;;;;;;;;;-7.95;68.24;95871.97;5074344;28;1045;-50
2022/01/20 06:31:09;;;;;;;;;;;;;;;-7.96;67.79;95859.06;5073464;28;989;-50
2022/01/20 06:33:35;;;;;;;;;;;;;;;-7.09;66.28;95864.00;5073706;28;978;-50
2022/01/20 06:36:01;;;;;;;;;;;;;;;-5.83;62.90;95867.53;5074550;28;1914;-49
2022/01/20 06:38:27;;;;;;;;;;;;;;;-2.97;56.08;95862.88;5073125;28;1046;-50
2022/01/20 06:40:53;;;;;;;;;;;;;;;0.10;47.21;95866.22;5073563;28;969;-50
2022/01/20 06:43:19;;;;;;;;;;;;;;;1.83;42.68;95854.88;5074364;28;977;-50
2022/01/20 06:45:45;;;;;;;;;;;;;;;1.73;42.53;95859.03;5074408;28;1045;-50
2022/01/20 06:48:12;;;;;;;;;;;;;;;1.54;43.06;95857.44;5074090;28;1068;-50
2022/01/20 06:50:38;;;;;;;;;;;;;;;2.18;41.60;95856.34;5074113;28;1251;-49
2022/01/20 06:53:04;;;;;;;;;;;;;;;1.77;42.71;95849.16;5074377;28;1063;-50
2022/01/20 06:55:30;;;;;;;;;;;;;;;1.60;43.00;95845.69;5074429;28;1906;-50
2022/01/20 06:57:57;;;;;;;;;;;;;;;3.31;39.47;95851.88;5073971;28;1052;-50
2022/01/20 07:00:24;;;;;;;;;;;;;;;5.27;36.78;95855.25;5074271;28;1052;-49
2022/01/20 07:02:50;;;;;;;;;;;;;;;6.86;33.37;95856.56;5073889;28;1101;-49
2022/01/20 07:05:18;;;;;;;;;;;;;;;7.98;31.53;95847.47;5074171;28;985;-48
2022/01/20 07:07:44;;;;;;;;;;;;;;;7.56;32.06;95857.22;5073610;28;1108;-49
2022/01/20 07:10:11;;;;;;;;;;;;;;;5.82;34.34;95853.00;5074013;28;1052;-49
2022/01/20 07:12:37;;;;;;;;;;;;;;;5.30;36.26;95856.81;5073708;28;1061;-48
2022/01/20 07:15:04;;;;;;;;;;;;;;;5.31;35.55;95853.19;5072670;28;2007;-48
2022/01/20 07:17:30;;;;;;;;;;;;;;;5.05;36.82;95871.84;5073824;28;1009;-48
2022/01/20 07:19:56;;;;;;;;;;;;;;;5.89;35.74;95868.44;5073924;28;970;-48
2022/01/20 07:22:22;;;;;;;;;;;;;;;6.61;34.42;95860.31;5072179;28;1094;-49
2022/01/20 07:24:48;;;;;;;;;;;;;;;6.33;34.55;95854.47;5073955;28;1039;-49
2022/01/20 07:27:14;;;;;;;;;;;;;;;6.33;34.91;95840.34;5072144;28;1017;-48
2022/01/20 07:29:41;;;;;;;;;;;;;;;6.81;34.31;95848.09;5073467;28;1089;-48
2022/01/20 07:32:07;;;;;;;;;;;;;;;7.07;33.70;95843.38;5073200;28;965;-49
2022/01/20 07:34:34;;;;;;;;;;;;;;;8.36;32.01;95843.41;5073618;28;1987;-49
2022/01/20 07:37:00;;;;;;;;;;;;;;;10.01;29.66;95838.78;5073320;28;1221;-48
2022/01/20 07:39:26;;;;;;;;;;;;;;;10.13;29.47;95843.84;5072455;28;980;-49
2022/01/20 07:41:52;;;;;;;;;;;;;;;10.16;29.36;95854.22;5073414;28;996;-49
2022/01/20 07:44:20;;;;;;;;;;;;;;;9.30;30.21;95851.31;5073164;28;1057;-49
2022/01/20 07:46:46;;;;;;;;;;;;;;;8.36;31.78;95854.06;5073140;28;1116;-49
2022/01/20 07:49:12;;;;;;;;;;;;;;;6.28;35.14;95851.34;5073092;28;1101;-49
2022/01/20 07:51:38;;;;;;;;;;;;;;;3.17;40.76;95845.78;5073422;28;977;-48
2022/01/20 07:54:06;;;;;;;;;;;;;;;0.92;46.56;95839.00;5072870;28;1890;-48
2022/01/20 07:56:32;;;;;;;;;;;;;;;-0.39;50.86;95845.09;5072069;28;1107;-48
2022/01/20 07:58:58;;;;;;;;;;;;;;;-1.15;53.21;95836.59;5072693;28;1977;-48
2022/01/20 08:01:24;;;;;;;;;;;;;;;-1.51;54.34;95838.22;5073207;28;1001;-48
2022/01/20 08:03:52;;;;;;;;;;;;;;;-1.89;56.22;95835.59;5072898;28;1050;-47
2022/01/20 08:06:20;;;;;;;;;;;;;;;-2.06;56.55;95828.47;5072933;28;937;-47
2022/01/20 08:08:47;;;;;;;;;;;;;;;-2.06;56.84;95830.25;5071652;28;1060;-47
2022/01/20 08:11:13;;;;;;;;;;;;;;;-2.18;56.65;95837.72;5073039;28;1065;-48
2022/01/20 08:13:41;;;;;;;;;;;;;;;-2.41;57.61;95828.25;5073073;28;1001;-47
2022/01/20 08:16:07;;;;;;;;;;;;;;;-2.50;59.08;95844.34;5072689;28;1976;-47
2022/01/20 08:18:33;;;;;;;;;;;;;;;-2.52;59.35;95851.44;5072920;28;1071;-48
2022/01/20 08:20:58;;;;;;;;;;;;;;;-2.32;59.22;95845.31;5073129;28;977;-48
2022/01/20 08:23:24;;;;;;;;;;;;;;;-2.10;59.45;95847.03;5072800;28;1017;-48
2022/01/20 08:25:50;;;;;;;;;;;;;;;-2.19;59.84;95836.00;5072894;28;1060;-48
2022/01/20 08:28:20;;;;;;;;;;;;;;;-2.28;59.91;95819.84;5072717;28;1051;-47
2022/01/20 08:30:46;;;;;;;;;;;;;;;-2.20;60.29;95823.84;5071534;28;1041;-48
2022/01/20 08:33:12;;;;;;;;;;;;;;;-1.93;58.64;95823.53;5071536;28;1052;-48
2022/01/20 08:35:39;;;;;;;;;;;;;;;-1.86;59.48;95809.25;5072953;28;1906;-48
2022/01/20 08:38:07;;;;;;;;;;;;;;;-1.79;57.86;95810.63;5072478;28;1117;-48
2022/01/20 08:40:33;;;;;;;;;;;;;;;-1.72;59.44;95818.25;5072684;28;1042;-47
2022/01/20 08:42:59;;;;;;;;;;;;;;;-1.63;60.01;95809.94;5072479;28;1060;-48
2022/01/20 08:45:28;;;;;;;;;;;;;;;-1.33;59.31;95809.44;5072837;28;1067;-47
2022/01/20 08:47:55;;;;;;;;;;;;;;;-1.19;60.04;95796.50;5072876;28;1009;-48
2022/01/20 08:50:22;;;;;;;;;;;;;;;-1.06;58.18;95809.91;5073170;28;2052;-48
2022/01/20 08:52:48;;;;;;;;;;;;;;;-0.76;58.31;95810.13;5076511;28;1048;-47
2022/01/20 08:55:15;;;;;;;;;;;;;;;-0.65;57.37;95815.69;5076291;28;1999;-48
2022/01/20 08:57:41;;;;;;;;;;;;;;;-0.45;57.09;95814.72;5076026;28;1053;-48
2022/01/20 09:00:08;;;;;;;;;;;;;;;-0.04;55.69;95805.59;5075864;28;985;-48
2022/01/20 09:02:34;;;;;;;;;;;;;;;0.80;54.74;95800.22;5076397;28;1028;-48
2022/01/20 09:05:01;;;;;;;;;;;;;;;2.70;49.99;95803.84;5076060;28;1033;-48
2022/01/20 09:07:27;;;;;;;;;;;;;;;3.63;46.39;95806.63;5075862;28;1891;-48
2022/01/20 09:09:55;;;;;;;;;;;;;;;4.62;44.16;95798.06;5076108;28;1009;-47
2022/01/20 09:17:46;;;;;;;;;;;;;;;8.70;35.71;95799.72;5075865;28;1066;-48
2022/01/20 09:20:12;;;;;;;;;;;;;;;10.10;33.15;95806.69;5075865;28;1055;-49
2022/01/20 09:22:38;;;;;;;;;;;;;;;10.36;31.76;95800.81;5075655;28;1081;-49
2022/01/20 09:25:05;;;;;;;;;;;;;;;10.02;32.01;95803.91;5075529;28;1127;-48
2022/01/20 09:27:32;;;;;;;;;;;;;;;10.70;31.45;95797.63;5075773;28;980;-48
2022/01/20 09:29:59;;;;;;;;;;;;;;;14.15;27.05;95790.22;5075511;28;1112;-48
2022/01/20 09:32:27;;;;;;;;;;;;;;;16.96;23.61;95794.94;5075507;28;1104;-49
2022/01/20 09:34:56;;;;;;;;;;;;;;;18.51;21.25;95783.03;5075422;28;1906;-49
2022/01/20 09:37:22;;;;;;;;;;;;;;;18.38;21.19;95784.78;5075529;28;1240;-56
2022/01/20 09:39:48;;;;;;;;;;;;;;;19.77;19.31;95787.63;5075321;28;1104;-49
2022/01/20 09:42:14;;;;;;;;;;;;;;;20.16;19.29;95787.94;5075580;28;1040;-48
2022/01/20 09:44:47;;;;;;;;;;;;;;;20.76;19.02;95775.28;5075448;28;1048;-47
2022/01/20 09:47:15;;;;;;;;;;;;;;;21.30;18.18;95767.88;5075480;28;1040;-48
2022/01/20 09:49:41;;;;;;;;;;;;;;;21.64;18.21;95777.66;5074933;28;1109;-52
2022/01/20 09:52:07;;;;;;;;;;;;;;;21.44;18.08;95755.13;5075400;28;1051;-48
2022/01/20 09:54:34;;;;;;;;;;;;;;;22.08;17.96;95747.06;5075121;28;1992;-48
2022/01/20 09:57:00;;;;;;;;;;;;;;;22.16;17.15;95752.28;5075483;28;973;-48
2022/01/20 09:59:27;;;;;;;;;;;;;;;21.91;17.50;95747.59;5074625;28;1240;-48
2022/01/20 10:01:57;;;;;;;;;;;;;;;21.96;17.19;95738.78;5074643;28;973;-48
2022/01/20 10:04:29;;;;;;;;;;;;;;;21.72;17.07;95740.34;5075128;28;982;-48
2022/01/20 10:06:57;;;;;;;;;;;;;;;22.86;16.10;95732.25;5075048;28;989;-48
2022/01/20 10:09:34;;;;;;;;;;;;;;;22.94;15.98;95724.63;5074900;28;934;-49
2022/01/20 10:12:00;;;;;;;;;;;;;;;21.88;16.92;95717.25;5075095;28;1075;-48
2022/01/20 10:14:25;;;;;;;;;;;;;;;22.88;16.91;95717.38;5074602;28;2026;-48
2022/01/20 10:16:52;;;;;;;;;;;;;;;22.50;16.57;95717.47;5074735;28;1141;-48
2022/01/20 10:19:22;;;;;;;;;;;;;;;22.64;16.76;95710.03;5074605;28;1055;-48
2022/01/20 10:21:48;;;;;;;;;;;;;;;22.61;16.59;95698.53;5074647;28;1060;-48
2022/01/20 10:24:15;;;;;;;;;;;;;;;21.00;18.13;95688.69;5074709;28;1068;-48
2022/01/20 10:26:41;;;;;;;;;;;;;;;16.49;21.63;95681.84;5074677;28;1045;-47
2022/01/20 10:29:16;;;;;;;;;;;;;;;12.66;26.33;95675.34;5074353;28;965;-47
2022/01/20 10:31:44;;;;;;;;;;;;;;;11.02;29.42;95682.16;5074334;28;1037;-48
2022/01/20 10:34:33;;;;;;;;;;;;;;;10.39;31.21;95676.69;5074197;28;1906;-47
2022/01/20 10:37:02;;;;;;;;;;;;;;;11.81;28.92;95675.16;5074089;28;1205;-47
2022/01/20 10:39:37;;;;;;;;;;;;;;;15.39;24.21;95669.59;5074342;28;1056;-47
2022/01/20 10:42:05;;;;;;;;;;;;;;;17.80;21.27;95665.81;5074343;28;1120;-47
2022/01/20 10:44:48;;;;;;;;;;;;;;;17.43;21.59;95667.69;5074343;28;993;-48
2022/01/20 10:47:18;;;;;;;;;;;;;;;14.16;24.23;95660.13;5074000;28;1041;-48
2022/01/20 10:49:44;;;;;;;;;;;;;;;11.93;27.82;95651.63;5074117;28;1302;-47
2022/01/20 10:52:12;;;;;;;;;;;;;;;10.11;30.38;95650.75;5073954;28;1052;-47
2022/01/20 10:54:43;;;;;;;;;;;;;;;9.61;32.52;95650.16;5073889;28;2234;-47
2022/01/20 10:57:10;;;;;;;;;;;;;;;9.35;32.33;95624.06;5073446;28;1077;-46
2022/01/20 10:59:52;;;;;;;;;;;;;;;8.99;33.42;95623.78;5074112;28;1041;-46
2022/01/20 11:02:19;;;;;;;;;;;;;;;8.52;33.60;95620.94;5073591;28;1105;-47
2022/01/20 11:04:46;;;;;;;;;;;;;;;8.70;34.42;95618.44;5073730;28;1026;-47
2022/01/20 11:07:13;;;;;;;;;;;;;;;8.77;33.73;95614.25;5073468;28;1057;-47
2022/01/20 11:09:43;;;;;;;;;;;;;;;8.84;34.22;95611.84;5073648;28;1065;-47
2022/01/20 11:12:13;;;;;;;;;;;;;;;8.49;34.79;95602.53;5073392;28;1038;-47
2022/01/20 11:14:39;;;;;;;;;;;;;;;8.37;34.70;95597.28;5073598;28;1983;-49
2022/01/20 11:17:05;;;;;;;;;;;;;;;8.43;35.25;95593.28;5073789;28;976;-47
2022/01/20 11:19:37;;;;;;;;;;;;;;;8.45;34.74;95599.31;5073454;28;1045;-49
2022/01/20 11:22:07;;;;;;;;;;;;;;;8.48;34.86;95595.50;5073300;28;1057;-46
2022/01/20 11:24:33;;;;;;;;;;;;;;;8.41;34.21;95603.19;5073789;28;1083;-47
2022/01/20 11:27:01;;;;;;;;;;;;;;;8.27;35.10;95590.25;5073517;28;1028;-47
2022/01/20 11:29:39;;;;;;;;;;;;;;;7.85;35.47;95585.06;5073323;28;1037;-46
2022/01/20 11:32:21;;;;;;;;;;;;;;;7.84;35.05;95581.56;5073530;28;977;-47
2022/01/20 11:35:00;;;;;;;;;;;;;;;7.65;36.07;95574.34;5073554;28;1981;-47
2022/01/20 11:37:27;;;;;;;;;;;;;;;7.08;36.66;95571.19;5053083;28;1081;-47
2022/01/20 11:39:53;;;;;;;;;;;;;;;7.08;36.88;95565.88;5053294;28;1057;-47
2022/01/20 11:42:21;;;;;;;;;;;;;;;7.03;37.31;95557.44;5051842;28;1049;-47
2022/01/20 11:44:48;;;;;;;;;;;;;;;7.07;36.46;95550.06;5053240;28;1058;-47
2022/01/20 11:47:14;;;;;;;;;;;;;;;7.10;36.74;95545.31;5052898;28;1027;-47
2022/01/20 11:49:43;;;;;;;;;;;;;;;7.23;36.62;95538.00;5053127;28;1279;-47
2022/01/20 11:52:10;;;;;;;;;;;;;;;7.06;36.90;95533.28;5052901;28;1026;-48
2022/01/20 11:54:39;;;;;;;;;;;;;;;7.05;37.50;95526.25;5053734;28;1914;-47
2022/01/20 11:57:14;;;;;;;;;;;;;;;7.36;37.30;95521.81;5053228;28;933;-47
2022/01/20 11:59:43;;;;;;;;;;;;;;;7.36;36.36;95511.19;5053519;28;966;-47
2022/01/20 12:02:10;;;;;;;;;;;;;;;7.59;36.58;95508.34;5052770;28;1053;-48
2022/01/20 12:04:38;;;;;;;;;;;;;;;7.78;36.04;95507.56;5052977;28;973;-47
2022/01/20 12:07:04;;;;;;;;;;;;;;;7.85;35.88;95510.53;5052888;28;1042;-48
2022/01/20 12:09:33;;;;;;;;;;;;;;;7.52;36.19;95504.53;5052873;28;1108;-47
2022/01/20 12:11:59;;;;;;;;;;;;;;;7.33;36.52;95508.78;5052860;28;962;-47
2022/01/20 12:14:32;;;;;;;;;;;;;;;7.44;35.83;95507.84;5051858;28;1910;-47
2022/01/20 12:17:03;;;;;;;;;;;;;;;7.35;36.10;95503.34;5052800;28;1066;-48
2022/01/20 12:19:29;;;;;;;;;;;;;;;7.46;36.59;95507.72;5052741;28;1068;-48
2022/01/20 12:21:55;;;;;;;;;;;;;;;7.53;35.96;95501.75;5052651;28;1041;-47
2022/01/20 12:24:21;;;;;;;;;;;;;;;7.58;36.03;95498.66;5052868;28;1051;-48
2022/01/20 12:26:47;;;;;;;;;;;;;;;7.50;36.04;95504.66;5056036;28;1984;-47
2022/01/20 12:29:13;;;;;;;;;;;;;;;7.61;35.69;95499.25;5057035;28;1047;-47
2022/01/20 12:31:48;;;;;;;;;;;;;;;7.54;35.32;95495.44;5056577;28;1260;-47
2022/01/20 12:34:15;;;;;;;;;;;;;;;7.59;34.46;95495.88;5056727;28;1914;-47
2022/01/20 12:36:49;;;;;;;;;;;;;;;7.37;35.13;95480.09;5070867;28;1158;-47
2022/01/20 12:39:21;;;;;;;;;;;;;;;7.31;35.24;95470.00;5076802;28;1048;-47
2022/01/20 12:41:53;;;;;;;;;;;;;;;7.32;35.60;95475.19;5076490;28;1045;-47
2022/01/20 12:44:19;;;;;;;;;;;;;;;7.28;35.71;95455.13;5075452;28;1041;-47
2022/01/20 12:46:46;;;;;;;;;;;;;;;7.35;35.19;95460.78;5076657;28;1140;-47
2022/01/20 12:49:17;;;;;;;;;;;;;;;7.48;35.63;95465.88;5076114;28;1234;-47
2022/01/20 12:51:51;;;;;;;;;;;;;;;7.37;34.88;95464.13;5076483;28;988;-47
2022/01/20 12:54:26;;;;;;;;;;;;;;;7.33;35.28;95460.06;5076010;28;1913;-48
2022/01/20 12:56:53;;;;;;;;;;;;;;;7.37;34.27;95458.81;5076395;28;973;-47
2022/01/20 12:59:25;;;;;;;;;;;;;;;7.34;34.31;95449.28;5076217;28;1037;-48
2022/01/20 13:01:52;;;;;;;;;;;;;;;7.33;34.87;95446.75;5076173;28;1096;-48
2022/01/20 13:04:22;;;;;;;;;;;;;;;7.39;34.69;95439.06;5075896;28;934;-47
2022/01/20 13:07:01;;;;;;;;;;;;;;;7.38;35.05;95445.38;5076117;28;1009;-47
2022/01/20 13:09:38;;;;;;;;;;;;;;;7.36;34.61;95446.47;5076268;28;1041;-47
2022/01/20 13:12:05;;;;;;;;;;;;;;;7.43;35.54;95444.97;5074925;28;1048;-48
2022/01/20 13:14:40;;;;;;;;;;;;;;;7.38;36.29;95450.72;5076164;28;1989;-47
2022/01/20 13:17:07;;;;;;;;;;;;;;;7.35;35.96;95455.44;5076154;28;1008;-48
2022/01/20 13:19:35;;;;;;;;;;;;;;;7.22;36.09;95456.50;5075677;28;1100;-48
2022/01/20 13:22:04;;;;;;;;;;;;;;;7.07;36.48;95457.84;5075801;28;1163;-47
2022/01/20 13:24:30;;;;;;;;;;;;;;;6.93;36.29;95447.56;5075509;28;1101;-48
2022/01/20 13:26:57;;;;;;;;;;;;;;;6.77;36.31;95450.66;5075886;28;1027;-48
2022/01/20 13:29:25;;;;;;;;;;;;;;;6.71;36.68;95456.50;5075388;28;972;-48
2022/01/20 13:31:54;;;;;;;;;;;;;;;6.63;36.20;95443.88;5076052;28;977;-48
2022/01/20 13:34:20;;;;;;;;;;;;;;;6.55;36.60;95443.69;5075407;28;2051;-47
2022/01/20 13:36:48;;;;;;;;;;;;;;;6.55;36.98;95449.00;5074491;28;1166;-47
2022/01/20 13:39:26;;;;;;;;;;;;;;;6.59;36.88;95437.13;5075611;28;1040;-48
2022/01/20 13:42:02;;;;;;;;;;;;;;;6.62;36.77;95431.53;5074347;28;973;-47
2022/01/20 13:47:13;;;;;;;;;;;;;;;6.63;36.64;95428.75;5075304;28;1089;-47
2022/01/20 13:49:52;;;;;;;;;;;;;;;6.59;37.39;95423.84;5075135;28;1239;-48
2022/01/20 13:52:20;;;;;;;;;;;;;;;6.62;37.34;95434.19;5075227;28;1113;-47
2022/01/20 13:54:51;;;;;;;;;;;;;;;6.62;37.91;95429.75;5073714;28;1910;-47
2022/01/20 13:57:18;;;;;;;;;;;;;;;6.67;37.87;95426.69;5075172;28;993;-47
2022/01/20 13:59:52;;;;;;;;;;;;;;;6.66;38.10;95433.00;5075147;28;985;-47
2022/01/20 14:02:18;;;;;;;;;;;;;;;6.64;37.76;95429.63;5075151;28;1005;-47
2022/01/20 14:04:44;;;;;;;;;;;;;;;6.70;37.85;95425.59;5074792;28;1049;-47
2022/01/20 14:07:10;;;;;;;;;;;;;;;6.69;38.57;95431.88;5075194;28;1049;-47
2022/01/20 14:09:36;;;;;;;;;;;;;;;6.61;38.70;95430.72;5075069;28;1013;-47
2022/01/20 14:12:02;;;;;;;;;;;;;;;6.61;39.08;95435.19;5075143;28;1056;-47
2022/01/20 14:14:29;;;;;;;;;;;;;;;6.60;38.77;95429.03;5074829;28;1997;-48
2022/01/20 14:16:56;;;;;;;;;;;;;;;6.67;39.37;95426.69;5074802;28;1037;-48
2022/01/20 14:19:23;;;;;;;;;;;;;;;6.67;39.48;95429.34;5074437;28;1033;-48